createdAt,value
2018-02-23T00:00:09.067Z,995.06
2018-02-23T00:01:19.056Z,995.03
2018-02-23T00:02:29.050Z,995.06
2018-02-23T00:03:38.771Z,995
2018-02-23T00:04:48.487Z,995.05
2018-02-23T00:05:58.473Z,995.04
2018-02-23T00:07:08.198Z,994.99
2018-02-23T00:08:18.183Z,995.03
2018-02-23T00:09:28.185Z,995.03
2018-02-23T00:10:38.173Z,995.06
2018-02-23T00:11:48.155Z,995.04
2018-02-23T00:12:58.141Z,995.08
2018-02-23T00:14:07.859Z,995.13
2018-02-23T00:15:17.846Z,995.07
2018-02-23T00:16:27.837Z,995.09
2018-02-23T00:17:38.083Z,995.12
2018-02-23T00:18:48.069Z,995.09
2018-02-23T00:19:58.060Z,995.04
2018-02-23T00:21:07.253Z,995.06
2018-02-23T00:22:17.241Z,995.08
2018-02-23T00:23:27.223Z,994.99
2018-02-23T00:24:37.209Z,995.05
2018-02-23T00:25:46.925Z,995.04
2018-02-23T00:26:56.648Z,994.99
2018-02-23T00:28:06.367Z,995
2018-02-23T00:29:16.359Z,994.99
2018-02-23T00:30:26.357Z,995
2018-02-23T00:31:36.344Z,995
2018-02-23T00:32:46.333Z,994.96
2018-02-23T00:33:56.325Z,994.95
2018-02-23T00:35:06.044Z,994.94
2018-02-23T00:36:16.033Z,994.91
2018-02-23T00:37:25.752Z,994.91
2018-02-23T00:38:35.951Z,995.01
2018-02-23T00:39:45.669Z,994.96
2018-02-23T00:40:55.663Z,995
2018-02-23T00:42:05.401Z,995.01
2018-02-23T00:43:15.387Z,994.95
2018-02-23T00:44:25.389Z,994.96
2018-02-23T00:45:35.110Z,994.98
2018-02-23T00:46:44.833Z,995.01
2018-02-23T00:47:54.821Z,994.99
2018-02-23T00:49:04.808Z,995.05
2018-02-23T00:50:14.800Z,995.03
2018-02-23T00:51:24.794Z,995.06
2018-02-23T00:52:34.779Z,995.04
2018-02-23T00:53:44.514Z,995.02
2018-02-23T00:54:54.509Z,995.02
2018-02-23T00:56:04.505Z,995.06
2018-02-23T00:57:14.495Z,995.11
2018-02-23T00:58:24.215Z,995.12
2018-02-23T00:59:34.214Z,995.12
2018-02-23T01:00:43.949Z,995.13
2018-02-23T01:01:53.405Z,995.07
2018-02-23T01:03:03.132Z,995.05
2018-02-23T01:04:13.116Z,995.08
2018-02-23T01:05:23.109Z,995.06
2018-02-23T01:06:33.218Z,995.06
2018-02-23T01:07:43.206Z,995.05
2018-02-23T01:08:53.200Z,995.06
2018-02-23T01:10:02.923Z,995.05
2018-02-23T01:11:12.915Z,995.01
2018-02-23T01:12:22.906Z,994.99
2018-02-23T01:13:32.889Z,995.02
2018-02-23T01:14:42.882Z,995.01
2018-02-23T01:15:52.873Z,994.98
2018-02-23T01:17:02.605Z,994.94
2018-02-23T01:18:12.606Z,994.96
2018-02-23T01:19:22.700Z,994.91
2018-02-23T01:20:32.427Z,994.86
2018-02-23T01:21:42.159Z,994.82
2018-02-23T01:22:51.885Z,994.85
2018-02-23T01:24:01.609Z,994.86
2018-02-23T01:25:11.334Z,994.82
2018-02-23T01:26:21.326Z,994.9
2018-02-23T01:27:31.319Z,994.9
2018-02-23T01:28:41.306Z,994.9
2018-02-23T01:29:51.025Z,994.93
2018-02-23T01:31:01.014Z,994.94
2018-02-23T01:32:11.008Z,994.89
2018-02-23T01:33:20.743Z,994.91
2018-02-23T01:34:30.733Z,994.89
2018-02-23T01:35:40.783Z,994.89
2018-02-23T01:36:50.588Z,994.87
2018-02-23T01:38:00.578Z,994.88
2018-02-23T01:39:10.572Z,994.88
2018-02-23T01:40:20.294Z,994.88
2018-02-23T01:41:30.287Z,994.9
2018-02-23T01:42:39.748Z,994.88
2018-02-23T01:43:49.733Z,994.89
2018-02-23T01:44:59.721Z,994.81
2018-02-23T01:46:09.443Z,994.81
2018-02-23T01:47:19.434Z,994.72
2018-02-23T01:48:29.530Z,994.77
2018-02-23T01:49:39.522Z,994.74
2018-02-23T01:50:49.241Z,994.79
2018-02-23T01:51:59.231Z,994.74
2018-02-23T01:53:09.217Z,994.73
2018-02-23T01:54:18.670Z,994.7
2018-02-23T01:55:28.385Z,994.68
2018-02-23T01:56:38.368Z,994.73
2018-02-23T01:57:48.094Z,994.68
2018-02-23T01:58:58.081Z,994.77
2018-02-23T02:00:07.805Z,994.75
2018-02-23T02:01:17.538Z,994.76
2018-02-23T02:02:27.538Z,994.76
2018-02-23T02:03:37.534Z,994.77
2018-02-23T02:04:46.998Z,994.76
2018-02-23T02:05:56.989Z,994.74
2018-02-23T02:07:06.982Z,994.76
2018-02-23T02:08:16.970Z,994.74
2018-02-23T02:09:26.954Z,994.74
2018-02-23T02:10:36.736Z,994.75
2018-02-23T02:11:46.461Z,994.75
2018-02-23T02:12:56.178Z,994.73
2018-02-23T02:14:05.906Z,994.71
2018-02-23T02:15:15.922Z,994.73
2018-02-23T02:16:25.909Z,994.72
2018-02-23T02:17:36.001Z,994.7
2018-02-23T02:18:45.736Z,994.72
2018-02-23T02:19:55.723Z,994.7
2018-02-23T02:21:05.444Z,994.69
2018-02-23T02:22:15.433Z,994.71
2018-02-23T02:23:25.425Z,994.73
2018-02-23T02:24:34.876Z,994.77
2018-02-23T02:25:44.347Z,994.72
2018-02-23T02:26:54.343Z,994.72
2018-02-23T02:28:04.336Z,994.72
2018-02-23T02:29:14.325Z,994.73
2018-02-23T02:30:24.056Z,994.69
2018-02-23T02:31:33.790Z,994.68
2018-02-23T02:32:43.784Z,994.63
2018-02-23T02:33:53.775Z,994.67
2018-02-23T02:35:03.830Z,994.67
2018-02-23T02:36:13.825Z,994.64
2018-02-23T02:37:23.831Z,994.64
2018-02-23T02:38:33.561Z,994.65
2018-02-23T02:39:43.565Z,994.55
2018-02-23T02:40:53.293Z,994.61
2018-02-23T02:42:03.295Z,994.62
2018-02-23T02:43:13.289Z,994.65
2018-02-23T02:44:23.288Z,994.69
2018-02-23T02:45:33.338Z,994.71
2018-02-23T02:46:43.336Z,994.74
2018-02-23T02:47:53.343Z,994.73
2018-02-23T02:49:02.795Z,994.7
2018-02-23T02:50:12.533Z,994.71
2018-02-23T02:51:22.535Z,994.6
2018-02-23T02:52:32.539Z,994.64
2018-02-23T02:53:42.283Z,994.63
2018-02-23T02:54:52.288Z,994.7
2018-02-23T02:56:02.288Z,994.61
2018-02-23T02:57:12.310Z,994.65
2018-02-23T02:58:22.312Z,994.67
2018-02-23T02:59:32.308Z,994.64
2018-02-23T03:00:42.376Z,994.57
2018-02-23T03:01:52.373Z,994.65
2018-02-23T03:03:02.374Z,994.66
2018-02-23T03:04:12.409Z,994.61
2018-02-23T03:05:21.869Z,994.59
2018-02-23T03:06:31.602Z,994.59
2018-02-23T03:07:41.611Z,994.62
2018-02-23T03:08:51.609Z,994.59
2018-02-23T03:10:01.064Z,994.61
2018-02-23T03:11:10.529Z,994.59
2018-02-23T03:12:20.524Z,994.59
2018-02-23T03:13:30.515Z,994.58
2018-02-23T03:14:40.505Z,994.62
2018-02-23T03:15:50.500Z,994.6
2018-02-23T03:17:00.496Z,994.62
2018-02-23T03:18:10.484Z,994.6
2018-02-23T03:19:20.212Z,994.65
2018-02-23T03:20:29.940Z,994.65
2018-02-23T03:21:39.669Z,994.61
2018-02-23T03:22:49.655Z,994.59
2018-02-23T03:23:59.646Z,994.58
2018-02-23T03:25:09.106Z,994.61
2018-02-23T03:26:18.830Z,994.58
2018-02-23T03:27:28.865Z,994.54
2018-02-23T03:28:38.868Z,994.55
2018-02-23T03:29:48.591Z,994.57
2018-02-23T03:30:58.593Z,994.65
2018-02-23T03:32:08.607Z,994.62
2018-02-23T03:33:18.589Z,994.71
2018-02-23T03:34:28.581Z,994.69
2018-02-23T03:35:38.566Z,994.64
2018-02-23T03:36:48.556Z,994.65
2018-02-23T03:37:58.545Z,994.69
2018-02-23T03:39:08.276Z,994.63
2018-02-23T03:40:18.268Z,994.67
2018-02-23T03:41:28.265Z,994.65
2018-02-23T03:42:37.989Z,994.7
2018-02-23T03:43:47.977Z,994.65
2018-02-23T03:44:57.968Z,994.61
2018-02-23T03:46:07.960Z,994.65
2018-02-23T03:47:17.949Z,994.6
2018-02-23T03:48:27.667Z,994.61
2018-02-23T03:49:37.658Z,994.63
2018-02-23T03:50:47.387Z,994.6
2018-02-23T03:51:57.383Z,994.59
2018-02-23T03:53:07.102Z,994.61
2018-02-23T03:54:16.820Z,994.59
2018-02-23T03:55:26.815Z,994.6
2018-02-23T03:56:36.806Z,994.63
2018-02-23T03:57:46.858Z,994.65
2018-02-23T03:58:56.848Z,994.65
2018-02-23T04:00:06.846Z,994.73
2018-02-23T04:04:27.475Z,994.76
2018-02-23T04:05:37.199Z,994.74
2018-02-23T04:06:47.231Z,994.76
2018-02-23T04:07:57.222Z,994.72
2018-02-23T04:09:06.952Z,994.78
2018-02-23T04:10:16.947Z,994.79
2018-02-23T04:11:26.984Z,994.82
2018-02-23T04:12:36.761Z,994.82
2018-02-23T04:13:46.482Z,994.83
2018-02-23T04:14:56.201Z,994.8
2018-02-23T04:16:06.198Z,994.79
2018-02-23T04:17:15.940Z,994.8
2018-02-23T04:18:25.671Z,994.82
2018-02-23T04:19:35.657Z,994.84
2018-02-23T04:20:45.380Z,994.81
2018-02-23T04:21:55.372Z,994.8
2018-02-23T04:23:05.091Z,994.82
2018-02-23T04:24:15.080Z,994.82
2018-02-23T04:25:24.800Z,994.77
2018-02-23T04:26:34.792Z,994.79
2018-02-23T04:27:44.550Z,994.82
2018-02-23T04:28:54.547Z,994.8
2018-02-23T04:30:04.544Z,994.78
2018-02-23T04:31:14.535Z,994.76
2018-02-23T04:32:24.262Z,994.78
2018-02-23T04:33:34.249Z,994.73
2018-02-23T04:34:44.239Z,994.74
2018-02-23T04:35:54.227Z,994.72
2018-02-23T04:37:03.950Z,994.75
2018-02-23T04:38:13.667Z,994.74
2018-02-23T04:39:23.666Z,994.73
2018-02-23T04:40:33.425Z,994.72
2018-02-23T04:41:42.890Z,994.69
2018-02-23T04:42:52.877Z,994.7
2018-02-23T04:44:02.864Z,994.71
2018-02-23T04:45:12.852Z,994.71
2018-02-23T04:46:22.573Z,994.72
2018-02-23T04:47:32.609Z,994.68
2018-02-23T04:48:42.067Z,994.7
2018-02-23T04:49:52.062Z,994.71
2018-02-23T04:51:02.054Z,994.65
2018-02-23T04:52:12.042Z,994.67
2018-02-23T04:53:22.037Z,994.7
2018-02-23T04:54:32.026Z,994.72
2018-02-23T04:55:41.852Z,994.72
2018-02-23T04:56:51.835Z,994.71
2018-02-23T04:58:01.563Z,994.68
2018-02-23T04:59:11.548Z,994.71
2018-02-23T05:00:21.534Z,994.68
2018-02-23T05:01:31.572Z,994.73
2018-02-23T05:02:41.299Z,994.72
2018-02-23T05:03:51.298Z,994.72
2018-02-23T05:05:01.284Z,994.7
2018-02-23T05:06:11.006Z,994.75
2018-02-23T05:07:20.728Z,994.71
2018-02-23T05:08:30.721Z,994.73
2018-02-23T05:09:40.709Z,994.74
2018-02-23T05:10:50.712Z,994.73
2018-02-23T05:12:00.768Z,994.74
2018-02-23T05:13:10.324Z,994.74
2018-02-23T05:14:20.314Z,994.75
2018-02-23T05:15:30.044Z,994.8
2018-02-23T05:16:39.505Z,994.78
2018-02-23T05:17:49.224Z,994.83
2018-02-23T05:18:59.523Z,994.82
2018-02-23T05:20:09.526Z,994.83
2018-02-23T05:21:19.246Z,994.88
2018-02-23T05:22:28.967Z,994.88
2018-02-23T05:23:38.962Z,994.88
2018-02-23T05:24:48.952Z,994.92
2018-02-23T05:25:58.420Z,994.98
2018-02-23T05:27:08.144Z,994.91
2018-02-23T05:28:17.868Z,995.01
2018-02-23T05:29:27.860Z,994.98
2018-02-23T05:30:37.585Z,994.99
2018-02-23T05:31:47.571Z,995.01
2018-02-23T05:32:57.292Z,995.02
2018-02-23T05:34:07.290Z,995.01
2018-02-23T05:35:17.008Z,995.07
2018-02-23T05:36:26.830Z,995.07
2018-02-23T05:37:36.820Z,995.1
2018-02-23T05:38:46.811Z,995.11
2018-02-23T05:39:56.801Z,995.09
2018-02-23T05:41:06.263Z,995.13
2018-02-23T05:42:16.249Z,995.13
2018-02-23T05:43:26.241Z,995.07
2018-02-23T05:44:36.232Z,995.07
2018-02-23T05:45:46.223Z,995.07
2018-02-23T05:46:56.209Z,995.05
2018-02-23T05:48:06.199Z,995.08
2018-02-23T05:49:16.187Z,995.05
2018-02-23T05:50:26.176Z,995.09
2018-02-23T05:51:36.163Z,995.1
2018-02-23T05:52:45.620Z,995.05
2018-02-23T05:53:55.609Z,995.08
2018-02-23T05:55:05.341Z,995.08
2018-02-23T05:56:15.328Z,995.04
2018-02-23T05:57:25.056Z,995.06
2018-02-23T05:58:34.780Z,995.06
2018-02-23T05:59:44.769Z,995.06
2018-02-23T06:00:54.228Z,995.05
2018-02-23T06:02:03.683Z,995.1
2018-02-23T06:03:13.671Z,995.07
2018-02-23T06:04:23.394Z,995.1
2018-02-23T06:05:33.397Z,995.07
2018-02-23T06:06:43.125Z,995.08
2018-02-23T06:07:52.853Z,995.13
2018-02-23T06:09:02.854Z,995.11
2018-02-23T06:10:12.842Z,995.13
2018-02-23T06:11:22.850Z,995.15
2018-02-23T06:12:32.842Z,995.11
2018-02-23T06:13:42.834Z,995.09
2018-02-23T06:14:52.859Z,995.08
2018-02-23T06:16:02.581Z,995.12
2018-02-23T06:17:12.579Z,995.1
2018-02-23T06:18:22.576Z,995.15
2018-02-23T06:19:32.569Z,995.15
2018-02-23T06:20:42.566Z,995.14
2018-02-23T06:21:52.554Z,995.14
2018-02-23T06:23:02.272Z,995.14
2018-02-23T06:24:11.984Z,995.17
2018-02-23T06:25:21.983Z,995.15
2018-02-23T06:26:31.981Z,995.17
2018-02-23T06:27:41.968Z,995.17
2018-02-23T06:28:51.958Z,995.17
2018-02-23T06:30:01.705Z,995.21
2018-02-23T06:31:11.429Z,995.17
2018-02-23T06:32:21.148Z,995.2
2018-02-23T06:33:30.865Z,995.25
2018-02-23T06:34:40.855Z,995.2
2018-02-23T06:35:50.851Z,995.24
2018-02-23T06:37:00.568Z,995.26
2018-02-23T06:38:10.557Z,995.25
2018-02-23T06:39:20.548Z,995.25
2018-02-23T06:40:29.738Z,995.28
2018-02-23T06:41:38.952Z,995.3
2018-02-23T06:42:48.952Z,995.29
2018-02-23T06:43:58.937Z,995.31
2018-02-23T06:45:08.924Z,995.33
2018-02-23T06:46:18.906Z,995.34
2018-02-23T06:47:28.364Z,995.36
2018-02-23T06:48:38.354Z,995.36
2018-02-23T06:49:48.072Z,995.34
2018-02-23T06:50:58.114Z,995.33
2018-02-23T06:52:07.832Z,995.33
2018-02-23T06:53:17.834Z,995.32
2018-02-23T06:54:27.832Z,995.31
2018-02-23T06:55:37.828Z,995.3
2018-02-23T06:56:47.547Z,995.31
2018-02-23T06:57:57.547Z,995.31
2018-02-23T06:59:06.732Z,995.3
2018-02-23T07:00:16.757Z,995.35
2018-02-23T07:01:26.815Z,995.36
2018-02-23T07:02:36.536Z,995.38
2018-02-23T07:03:46.524Z,995.38
2018-02-23T07:04:56.320Z,995.37
2018-02-23T07:06:06.062Z,995.35
2018-02-23T07:07:16.048Z,995.36
2018-02-23T07:08:26.036Z,995.36
2018-02-23T07:09:36.026Z,995.42
2018-02-23T07:10:45.745Z,995.38
2018-02-23T07:11:55.606Z,995.38
2018-02-23T07:13:05.062Z,995.4
2018-02-23T07:14:15.054Z,995.45
2018-02-23T07:15:25.055Z,995.47
2018-02-23T07:16:34.513Z,995.48
2018-02-23T07:17:44.228Z,995.47
2018-02-23T07:18:53.950Z,995.51
2018-02-23T07:20:03.939Z,995.51
2018-02-23T07:21:13.392Z,995.47
2018-02-23T07:22:22.857Z,995.55
2018-02-23T07:23:32.584Z,995.53
2018-02-23T07:24:42.569Z,995.57
2018-02-23T07:25:52.558Z,995.57
2018-02-23T07:27:02.545Z,995.6
2018-02-23T07:28:12.533Z,995.57
2018-02-23T07:29:21.986Z,995.6
2018-02-23T07:30:31.716Z,995.59
2018-02-23T07:31:41.701Z,995.58
2018-02-23T07:32:51.726Z,995.55
2018-02-23T07:34:01.717Z,995.6
2018-02-23T07:35:11.713Z,995.61
2018-02-23T07:36:21.701Z,995.58
2018-02-23T07:37:31.700Z,995.6
2018-02-23T07:38:41.431Z,995.63
2018-02-23T07:39:51.427Z,995.62
2018-02-23T07:41:01.412Z,995.62
2018-02-23T07:42:11.133Z,995.65
2018-02-23T07:43:20.859Z,995.67
2018-02-23T07:44:30.848Z,995.64
2018-02-23T07:45:40.844Z,995.67
2018-02-23T07:46:50.841Z,995.65
2018-02-23T07:48:00.573Z,995.63
2018-02-23T07:49:10.568Z,995.66
2018-02-23T07:50:20.714Z,995.68
2018-02-23T07:51:30.514Z,995.68
2018-02-23T07:52:40.520Z,995.71
2018-02-23T07:53:49.977Z,995.7
2018-02-23T07:54:59.970Z,995.71
2018-02-23T07:56:09.696Z,995.68
2018-02-23T07:57:19.423Z,995.72
2018-02-23T07:58:29.150Z,995.69
2018-02-23T07:59:39.139Z,995.7
2018-02-23T08:00:49.137Z,995.73
2018-02-23T08:01:58.594Z,995.72
2018-02-23T08:03:08.050Z,995.69
2018-02-23T08:04:17.519Z,995.68
2018-02-23T08:05:27.243Z,995.73
2018-02-23T08:06:37.233Z,995.74
2018-02-23T08:07:46.682Z,995.76
2018-02-23T08:08:56.810Z,995.79
2018-02-23T08:10:06.575Z,995.79
2018-02-23T08:11:16.572Z,995.8
2018-02-23T08:12:26.563Z,995.75
2018-02-23T08:13:36.654Z,995.78
2018-02-23T08:14:46.371Z,995.79
2018-02-23T08:15:56.093Z,995.83
2018-02-23T08:17:06.097Z,995.85
2018-02-23T08:18:16.086Z,995.87
2018-02-23T08:19:26.079Z,995.89
2018-02-23T08:20:36.068Z,995.9
2018-02-23T08:21:45.796Z,995.88
2018-02-23T08:22:55.783Z,995.95
2018-02-23T08:24:05.504Z,995.96
2018-02-23T08:25:15.228Z,995.93
2018-02-23T08:26:25.274Z,995.89
2018-02-23T08:27:35.072Z,995.91
2018-02-23T08:28:45.071Z,995.89
2018-02-23T08:29:55.070Z,995.93
2018-02-23T08:31:05.067Z,995.93
2018-02-23T08:32:14.793Z,995.9
2018-02-23T08:33:24.773Z,995.89
2018-02-23T08:34:34.761Z,995.95
2018-02-23T08:35:44.479Z,995.99
2018-02-23T08:36:54.468Z,996.04
2018-02-23T08:38:04.460Z,995.96
2018-02-23T08:39:13.915Z,996.03
2018-02-23T08:40:23.906Z,995.98
2018-02-23T08:41:33.896Z,995.95
2018-02-23T08:42:43.899Z,996.03
2018-02-23T08:43:53.628Z,996.01
2018-02-23T08:45:03.087Z,995.99
2018-02-23T08:46:13.091Z,996.01
2018-02-23T08:47:22.826Z,996.07
2018-02-23T08:48:32.819Z,996.04
2018-02-23T08:49:42.810Z,996.02
2018-02-23T08:50:52.537Z,996.06
2018-02-23T08:52:01.730Z,996.03
2018-02-23T08:53:11.457Z,996.05
2018-02-23T08:54:20.917Z,996.05
2018-02-23T08:55:30.902Z,996.01
2018-02-23T08:56:40.895Z,996.07
2018-02-23T08:57:50.355Z,996.06
2018-02-23T08:58:59.825Z,996.07
2018-02-23T09:00:09.654Z,996.09
2018-02-23T09:01:19.401Z,996.11
2018-02-23T09:02:29.534Z,996.13
2018-02-23T09:03:39.529Z,996.13
2018-02-23T09:04:49.251Z,996.09
2018-02-23T09:05:58.974Z,996.12
2018-02-23T09:07:08.165Z,996.08
2018-02-23T09:08:18.189Z,996.1
2018-02-23T09:09:27.920Z,996.17
2018-02-23T09:10:37.916Z,996.1
2018-02-23T09:11:47.377Z,996.14
2018-02-23T09:12:57.370Z,996.17
2018-02-23T09:14:07.364Z,996.16
2018-02-23T09:15:17.356Z,996.12
2018-02-23T09:16:26.818Z,996.15
2018-02-23T09:17:36.645Z,996.14
2018-02-23T09:18:46.403Z,996.14
2018-02-23T09:19:56.420Z,996.15
2018-02-23T09:21:05.613Z,996.19
2018-02-23T09:22:15.609Z,996.22
2018-02-23T09:23:25.335Z,996.25
2018-02-23T09:24:35.373Z,996.23
2018-02-23T09:25:45.208Z,996.26
2018-02-23T09:26:55.198Z,996.26
2018-02-23T09:28:05.193Z,996.27
2018-02-23T09:29:14.972Z,996.28
2018-02-23T09:30:24.697Z,996.3
2018-02-23T09:31:34.691Z,996.31
2018-02-23T09:32:44.157Z,996.3
2018-02-23T09:33:53.882Z,996.34
2018-02-23T09:35:03.879Z,996.31
2018-02-23T09:36:13.871Z,996.27
2018-02-23T09:37:23.862Z,996.28
2018-02-23T09:38:33.861Z,996.27
2018-02-23T09:39:43.329Z,996.29
2018-02-23T09:40:53.327Z,996.25
2018-02-23T09:42:03.058Z,996.22
2018-02-23T09:43:12.785Z,996.27
2018-02-23T09:44:22.781Z,996.28
2018-02-23T09:45:32.777Z,996.27
2018-02-23T09:46:42.511Z,996.27
2018-02-23T09:47:52.243Z,996.26
2018-02-23T09:49:01.974Z,996.29
2018-02-23T09:50:11.756Z,996.31
2018-02-23T09:51:21.789Z,996.28
2018-02-23T09:52:31.813Z,996.3
2018-02-23T09:53:41.811Z,996.31
2018-02-23T09:54:51.266Z,996.3
2018-02-23T09:56:01.004Z,996.23
2018-02-23T09:57:10.994Z,996.29
2018-02-23T09:58:20.984Z,996.29
2018-02-23T09:59:30.980Z,996.32
2018-02-23T10:00:40.705Z,996.3
2018-02-23T10:01:50.706Z,996.34
2018-02-23T10:03:00.431Z,996.29
2018-02-23T10:04:10.425Z,996.31
2018-02-23T10:05:20.164Z,996.35
2018-02-23T10:06:30.163Z,996.34
2018-02-23T10:07:39.624Z,996.37
2018-02-23T10:08:49.632Z,996.36
2018-02-23T10:09:59.627Z,996.4
2018-02-23T10:11:09.625Z,996.4
2018-02-23T10:12:19.359Z,996.45
2018-02-23T10:13:29.356Z,996.42
2018-02-23T10:14:39.091Z,996.47
2018-02-23T10:15:48.816Z,996.57
2018-02-23T10:16:58.807Z,996.56
2018-02-23T10:18:08.535Z,996.56
2018-02-23T10:19:18.524Z,996.54
2018-02-23T10:20:28.522Z,996.47
2018-02-23T10:21:38.521Z,996.49
2018-02-23T10:22:48.524Z,996.49
2018-02-23T10:23:58.534Z,996.45
2018-02-23T10:25:07.994Z,996.45
2018-02-23T10:26:17.724Z,996.47
2018-02-23T10:27:27.725Z,996.42
2018-02-23T10:28:37.458Z,996.45
2018-02-23T10:29:46.924Z,996.46
2018-02-23T10:30:56.914Z,996.43
2018-02-23T10:32:06.106Z,996.46
2018-02-23T10:33:15.941Z,996.45
2018-02-23T10:34:25.944Z,996.45
2018-02-23T10:35:35.942Z,996.44
2018-02-23T10:36:45.929Z,996.44
2018-02-23T10:37:55.929Z,996.47
2018-02-23T10:39:05.995Z,996.44
2018-02-23T10:40:15.992Z,996.46
2018-02-23T10:41:26.043Z,996.42
2018-02-23T10:42:35.547Z,996.41
2018-02-23T10:43:45.541Z,996.37
2018-02-23T10:44:55.271Z,996.4
2018-02-23T10:46:04.998Z,996.35
2018-02-23T10:47:15.063Z,996.37
2018-02-23T10:48:24.847Z,996.37
2018-02-23T10:49:34.305Z,996.36
2018-02-23T10:50:44.028Z,996.35
2018-02-23T10:51:53.765Z,996.39
2018-02-23T10:53:03.761Z,996.36
2018-02-23T10:54:13.761Z,996.41
2018-02-23T10:55:23.486Z,996.39
2018-02-23T10:56:33.216Z,996.46
2018-02-23T10:57:42.971Z,996.44
2018-02-23T10:58:53.081Z,996.47
2018-02-23T11:00:03.080Z,996.44
2018-02-23T11:01:12.814Z,996.48
2018-02-23T11:02:22.357Z,996.5
2018-02-23T11:03:31.819Z,996.51
2018-02-23T11:04:41.546Z,996.46
2018-02-23T11:05:51.540Z,996.5
2018-02-23T11:07:00.997Z,996.51
2018-02-23T11:08:10.734Z,996.56
2018-02-23T11:09:20.459Z,996.53
2018-02-23T11:10:30.190Z,996.52
2018-02-23T11:11:39.382Z,996.52
2018-02-23T11:12:49.111Z,996.55
2018-02-23T11:13:58.841Z,996.54
2018-02-23T11:15:08.840Z,996.52
2018-02-23T11:16:18.573Z,996.55
2018-02-23T11:17:28.561Z,996.53
2018-02-23T11:18:38.582Z,996.54
2018-02-23T11:19:48.706Z,996.51
2018-02-23T11:20:58.445Z,996.52
2018-02-23T11:22:08.486Z,996.42
2018-02-23T11:23:18.242Z,996.4
2018-02-23T11:24:28.259Z,996.39
2018-02-23T11:25:38.295Z,996.42
2018-02-23T11:26:48.035Z,996.4
2018-02-23T11:27:57.768Z,996.42
2018-02-23T11:29:07.238Z,996.4
2018-02-23T11:30:17.240Z,996.41
2018-02-23T11:31:27.301Z,996.36
2018-02-23T11:32:36.777Z,996.4
2018-02-23T11:33:46.511Z,996.45
2018-02-23T11:34:56.248Z,996.42
2018-02-23T11:36:06.253Z,996.47
2018-02-23T11:37:16.099Z,996.45
2018-02-23T11:38:25.565Z,996.45
2018-02-23T11:39:35.573Z,996.44
2018-02-23T11:40:45.580Z,996.49
2018-02-23T11:41:55.590Z,996.49
2018-02-23T11:43:05.329Z,996.5
2018-02-23T11:44:15.063Z,996.51
2018-02-23T11:45:25.066Z,996.55
2018-02-23T11:46:35.082Z,996.49
2018-02-23T11:47:44.550Z,996.52
2018-02-23T11:48:54.559Z,996.52
2018-02-23T11:50:04.300Z,996.54
2018-02-23T11:51:14.316Z,996.5
2018-02-23T11:52:24.322Z,996.55
2018-02-23T11:53:34.058Z,996.55
2018-02-23T11:54:44.064Z,996.58
2018-02-23T11:55:54.070Z,996.59
2018-02-23T11:57:03.811Z,996.59
2018-02-23T11:58:13.822Z,996.62
2018-02-23T11:59:23.832Z,996.62
2018-02-23T12:00:33.568Z,996.65
2018-02-23T12:01:43.312Z,996.66
2018-02-23T12:02:53.316Z,996.62
2018-02-23T12:04:03.065Z,996.6
2018-02-23T12:05:13.076Z,996.61
2018-02-23T12:06:22.821Z,996.6
2018-02-23T12:07:32.308Z,996.6
2018-02-23T12:08:42.049Z,996.54
2018-02-23T12:09:52.060Z,996.51
2018-02-23T12:11:02.076Z,996.54
2018-02-23T12:12:11.820Z,996.52
2018-02-23T12:13:21.562Z,996.55
2018-02-23T12:14:31.573Z,996.58
2018-02-23T12:15:41.581Z,996.54
2018-02-23T12:16:51.728Z,996.56
2018-02-23T12:18:01.476Z,996.55
2018-02-23T12:19:10.949Z,996.54
2018-02-23T12:20:20.954Z,996.51
2018-02-23T12:21:30.973Z,996.53
2018-02-23T12:22:40.715Z,996.49
2018-02-23T12:23:50.725Z,996.52
2018-02-23T12:25:00.470Z,996.49
2018-02-23T12:26:10.213Z,996.54
2018-02-23T12:27:20.226Z,996.51
2018-02-23T12:28:30.237Z,996.52
2018-02-23T12:29:39.984Z,996.58
2018-02-23T12:30:50.011Z,996.58
2018-02-23T12:32:00.022Z,996.63
2018-02-23T12:33:10.053Z,996.6
2018-02-23T12:34:19.820Z,996.6
2018-02-23T12:35:29.892Z,996.62
2018-02-23T12:36:39.397Z,996.65
2018-02-23T12:37:49.454Z,996.64
2018-02-23T12:38:59.476Z,996.63
2018-02-23T12:40:09.501Z,996.62
2018-02-23T12:41:19.276Z,996.58
2018-02-23T12:42:28.772Z,996.59
2018-02-23T12:43:38.794Z,996.59
2018-02-23T12:44:48.812Z,996.56
2018-02-23T12:45:58.567Z,996.58
2018-02-23T12:47:08.584Z,996.56
2018-02-23T12:48:18.610Z,996.55
2018-02-23T12:49:28.629Z,996.55
2018-02-23T12:50:38.651Z,996.58
2018-02-23T12:51:48.672Z,996.63
2018-02-23T12:52:58.699Z,996.64
2018-02-23T12:54:08.743Z,996.68
2018-02-23T12:55:18.813Z,996.71
2018-02-23T12:56:28.838Z,996.74
2018-02-23T12:57:38.863Z,996.75
2018-02-23T12:58:48.617Z,996.76
2018-02-23T12:59:58.639Z,996.78
2018-02-23T13:01:08.398Z,996.56
2018-02-23T13:02:18.425Z,996.57
2018-02-23T13:03:28.535Z,996.69
2018-02-23T13:04:38.871Z,996.84
2018-02-23T13:05:48.626Z,996.86
2018-02-23T13:06:58.660Z,996.88
2018-02-23T13:08:08.680Z,996.95
2018-02-23T13:09:18.708Z,996.96
2018-02-23T13:10:28.826Z,996.87
2018-02-23T13:11:38.850Z,996.82
2018-02-23T13:12:48.603Z,996.76
2018-02-23T13:13:58.628Z,996.71
2018-02-23T13:15:08.113Z,996.66
2018-02-23T13:16:18.136Z,996.67
2018-02-23T13:17:27.883Z,996.65
2018-02-23T13:18:37.675Z,996.67
2018-02-23T13:19:47.691Z,996.71
2018-02-23T13:20:57.706Z,996.72
2018-02-23T13:22:07.582Z,996.73
2018-02-23T13:23:16.966Z,996.7
2018-02-23T13:24:26.984Z,996.62
2018-02-23T13:25:36.732Z,996.69
2018-02-23T13:26:46.739Z,996.66
2018-02-23T13:27:56.754Z,996.69
2018-02-23T13:29:06.776Z,996.66
2018-02-23T13:30:16.790Z,996.66
2018-02-23T13:31:26.533Z,996.72
2018-02-23T13:32:36.539Z,996.74
2018-02-23T13:33:46.555Z,996.71
2018-02-23T13:34:56.298Z,996.72
2018-02-23T13:36:06.314Z,996.73
2018-02-23T13:37:16.060Z,996.69
2018-02-23T13:38:26.074Z,996.66
2018-02-23T13:39:35.815Z,996.67
2018-02-23T13:40:45.816Z,996.68
2018-02-23T13:41:55.564Z,996.69
2018-02-23T13:43:05.566Z,996.68
2018-02-23T13:44:15.040Z,996.69
2018-02-23T13:45:24.885Z,996.69
2018-02-23T13:46:34.622Z,996.66
2018-02-23T13:47:44.358Z,996.7
2018-02-23T13:48:54.373Z,996.75
2018-02-23T13:50:04.375Z,996.71
2018-02-23T13:51:14.380Z,996.73
2018-02-23T13:52:24.117Z,996.74
2018-02-23T13:53:33.860Z,996.75
2018-02-23T13:54:43.593Z,996.75
2018-02-23T13:55:53.332Z,996.8
2018-02-23T13:57:03.444Z,996.77
2018-02-23T13:58:13.458Z,996.73
2018-02-23T13:59:23.462Z,996.72
2018-02-23T14:00:33.475Z,996.73
2018-02-23T14:01:43.484Z,996.79
2018-02-23T14:02:53.480Z,996.8
2018-02-23T14:04:03.219Z,996.8
2018-02-23T14:05:13.244Z,996.81
2018-02-23T14:06:22.977Z,996.8
2018-02-23T14:07:32.971Z,996.8
2018-02-23T14:08:42.702Z,996.81
2018-02-23T14:09:52.696Z,996.8
2018-02-23T14:11:02.732Z,996.79
2018-02-23T14:12:12.469Z,996.82
2018-02-23T14:13:22.204Z,996.86
2018-02-23T14:14:32.210Z,996.88
2018-02-23T14:15:41.950Z,996.9
2018-02-23T14:16:51.948Z,996.91
2018-02-23T14:18:01.968Z,996.93
2018-02-23T14:19:11.702Z,996.98
2018-02-23T14:20:21.436Z,997.01
2018-02-23T14:21:31.438Z,997.03
2018-02-23T14:22:41.441Z,997.03
2018-02-23T14:23:51.446Z,997.02
2018-02-23T14:25:01.446Z,997.03
2018-02-23T14:26:11.179Z,997.03
2018-02-23T14:27:21.179Z,997.06
2018-02-23T14:28:31.184Z,997.08
2018-02-23T14:29:40.652Z,997.11
2018-02-23T14:30:50.649Z,997.16
2018-02-23T14:32:00.652Z,997.13
2018-02-23T14:33:10.652Z,997.16
2018-02-23T14:34:20.396Z,997.25
2018-02-23T14:35:29.861Z,997.21
2018-02-23T14:36:39.857Z,997.23
2018-02-23T14:37:49.588Z,997.24